createdAt,value
2022-11-20T00:00:09.817Z,5.72
2022-11-20T00:02:36.966Z,4.22
2022-11-20T00:05:04.209Z,4.70
2022-11-20T00:07:31.468Z,4.88
2022-11-20T00:09:58.779Z,4.00
2022-11-20T00:12:25.949Z,4.07
2022-11-20T00:14:53.176Z,4.55
2022-11-20T00:17:20.465Z,4.43
2022-11-20T00:19:47.696Z,3.85
2022-11-20T00:22:14.873Z,4.25
2022-11-20T00:24:43.242Z,4.20
2022-11-20T00:27:10.586Z,4.50
2022-11-20T00:29:37.777Z,4.60
2022-11-20T00:32:05.004Z,4.00
2022-11-20T00:34:32.188Z,3.92
2022-11-20T00:36:59.356Z,4.60
2022-11-20T00:39:26.612Z,3.90
2022-11-20T00:41:53.791Z,4.47
2022-11-20T00:44:21.037Z,4.22
2022-11-20T00:46:48.218Z,4.28
2022-11-20T00:49:15.560Z,3.60
2022-11-20T00:51:42.706Z,4.30
2022-11-20T00:54:09.935Z,4.38
2022-11-20T00:56:37.143Z,4.07
2022-11-20T00:59:04.266Z,4.75
2022-11-20T01:01:31.576Z,4.57
2022-11-20T01:03:58.828Z,3.97
2022-11-20T01:06:26.033Z,3.70
2022-11-20T01:08:53.176Z,3.30
2022-11-20T01:11:20.685Z,2.45
2022-11-20T01:13:47.862Z,2.42
2022-11-20T01:16:15.072Z,2.72
2022-11-20T01:18:42.315Z,2.40
2022-11-20T01:21:09.541Z,3.40
2022-11-20T01:23:36.673Z,3.20
2022-11-20T01:26:03.955Z,3.42
2022-11-20T01:28:31.084Z,2.92
2022-11-20T01:30:58.328Z,2.95
2022-11-20T01:33:25.505Z,3.28
2022-11-20T01:35:52.703Z,2.90
2022-11-20T01:38:21.055Z,3.88
2022-11-20T01:40:48.313Z,3.28
2022-11-20T01:43:21.560Z,3.90
2022-11-20T01:45:48.810Z,3.28
2022-11-20T01:48:15.967Z,3.20
2022-11-20T01:50:43.152Z,3.55
2022-11-20T01:53:10.324Z,4.10
2022-11-20T01:55:37.595Z,3.70
2022-11-20T01:58:04.772Z,3.10
2022-11-20T02:00:32.040Z,3.53
2022-11-20T02:02:59.191Z,3.10
2022-11-20T02:05:26.407Z,2.95
2022-11-20T02:07:53.828Z,3.75
2022-11-20T02:10:21.098Z,3.58
2022-11-20T02:13:06.991Z,3.33
2022-11-20T02:15:34.240Z,2.97
2022-11-20T02:18:01.371Z,3.20
2022-11-20T02:20:28.611Z,2.90
2022-11-20T02:22:55.759Z,5.35
2022-11-20T02:25:23.033Z,3.20
2022-11-20T02:27:50.212Z,3.13
2022-11-20T02:30:17.384Z,2.95
2022-11-20T02:32:44.542Z,2.63
2022-11-20T02:35:11.804Z,3.25
2022-11-20T02:37:38.925Z,2.70
2022-11-20T02:40:06.130Z,2.35
2022-11-20T02:42:33.302Z,2.85
2022-11-20T02:45:00.501Z,2.50
2022-11-20T02:47:27.739Z,2.20
2022-11-20T02:49:54.943Z,2.47
2022-11-20T02:52:22.123Z,2.45
2022-11-20T02:54:49.324Z,2.53
2022-11-20T02:57:16.521Z,2.42
2022-11-20T02:59:43.684Z,2.47
2022-11-20T03:02:10.911Z,2.58
2022-11-20T03:04:38.097Z,2.30
2022-11-20T03:07:05.357Z,2.10
2022-11-20T03:09:32.561Z,1.88
2022-11-20T03:11:59.832Z,1.85
2022-11-20T03:14:26.974Z,2.17
2022-11-20T03:16:54.216Z,1.73
2022-11-20T03:19:21.575Z,2.80
2022-11-20T03:21:48.863Z,1.50
2022-11-20T03:24:16.054Z,2.38
2022-11-20T03:26:43.261Z,1.77
2022-11-20T03:29:10.470Z,1.88
2022-11-20T03:31:37.703Z,1.80
2022-11-20T03:34:04.872Z,1.60
2022-11-20T03:36:32.102Z,1.92
2022-11-20T03:38:59.380Z,1.67
2022-11-20T03:41:26.682Z,1.90
2022-11-20T03:43:53.927Z,2.22
2022-11-20T03:46:21.129Z,1.90
2022-11-20T03:48:51.542Z,2.17
2022-11-20T03:51:19.259Z,2.08
2022-11-20T03:53:46.408Z,1.85
2022-11-20T03:56:13.616Z,2.13
2022-11-20T03:58:40.847Z,2.90
2022-11-20T04:01:08.137Z,3.10
2022-11-20T04:03:35.305Z,2.00
2022-11-20T04:06:02.513Z,2.80
2022-11-20T04:08:29.701Z,1.90
2022-11-20T04:10:56.908Z,2.17
2022-11-20T04:13:24.056Z,2.90
2022-11-20T04:15:51.281Z,2.60
2022-11-20T04:18:18.421Z,2.72
2022-11-20T04:20:45.654Z,2.63
2022-11-20T04:23:12.832Z,2.78
2022-11-20T04:25:40.051Z,2.80
2022-11-20T04:28:07.182Z,3.20
2022-11-20T04:30:34.420Z,2.70
2022-11-20T04:33:01.554Z,2.50
2022-11-20T04:35:28.771Z,3.03
2022-11-20T04:37:55.999Z,2.88
2022-11-20T04:40:23.283Z,3.38
2022-11-20T04:42:50.448Z,3.20
2022-11-20T04:45:17.664Z,3.28
2022-11-20T04:47:44.838Z,3.30
2022-11-20T04:50:12.077Z,2.78
2022-11-20T04:52:39.262Z,3.05
2022-11-20T04:55:06.479Z,3.15
2022-11-20T04:57:33.603Z,2.78
2022-11-20T05:00:00.811Z,3.00
2022-11-20T05:02:28.168Z,3.10
2022-11-20T05:04:55.441Z,3.22
2022-11-20T05:07:22.724Z,3.13
2022-11-20T05:09:49.975Z,2.50
2022-11-20T05:12:17.160Z,2.85
2022-11-20T05:14:44.395Z,3.35
2022-11-20T05:17:11.573Z,2.70
2022-11-20T05:19:38.939Z,3.35
2022-11-20T05:22:06.386Z,2.67
2022-11-20T05:24:33.630Z,3.38
2022-11-20T05:27:00.774Z,3.13
2022-11-20T05:29:28.007Z,2.33
2022-11-20T05:31:55.172Z,2.55
2022-11-20T05:34:22.374Z,2.20
2022-11-20T05:36:49.597Z,2.30
2022-11-20T05:39:16.839Z,3.28
2022-11-20T05:41:43.970Z,2.08
2022-11-20T05:44:11.202Z,2.83
2022-11-20T05:46:38.367Z,2.92
2022-11-20T05:49:05.579Z,3.58
2022-11-20T05:51:32.756Z,2.22
2022-11-20T05:53:59.973Z,2.78
2022-11-20T05:56:27.149Z,1.90
2022-11-20T05:58:54.450Z,2.60
2022-11-20T06:01:21.663Z,3.10
2022-11-20T06:03:48.976Z,2.38
2022-11-20T06:06:16.166Z,2.88
2022-11-20T06:08:43.461Z,2.63
2022-11-20T06:11:10.600Z,3.08
2022-11-20T06:13:41.857Z,3.08
2022-11-20T06:16:09.644Z,2.40
2022-11-20T06:18:36.776Z,2.42
2022-11-20T06:21:04.044Z,2.55
2022-11-20T06:23:31.260Z,2.72
2022-11-20T06:25:58.519Z,3.03
2022-11-20T06:28:25.761Z,2.80
2022-11-20T06:30:53.014Z,3.33
2022-11-20T06:33:20.163Z,3.33
2022-11-20T06:35:47.364Z,2.95
2022-11-20T06:38:14.653Z,3.80
2022-11-20T06:40:41.837Z,3.25
2022-11-20T06:43:09.065Z,3.22
2022-11-20T06:45:36.217Z,3.65
2022-11-20T06:48:03.459Z,3.22
2022-11-20T06:50:30.627Z,3.40
2022-11-20T06:52:57.835Z,3.53
2022-11-20T06:55:25.065Z,3.13
2022-11-20T06:57:55.841Z,2.90
2022-11-20T07:00:23.253Z,2.60
2022-11-20T07:02:50.903Z,2.92
2022-11-20T07:05:18.100Z,3.20
2022-11-20T07:07:45.316Z,2.17
2022-11-20T07:10:12.619Z,2.50
2022-11-20T07:12:39.846Z,2.20
2022-11-20T07:15:06.992Z,2.42
2022-11-20T07:17:34.240Z,2.10
2022-11-20T07:20:01.453Z,2.20
2022-11-20T07:22:28.718Z,1.80
2022-11-20T07:24:55.963Z,2.20
2022-11-20T07:27:23.181Z,2.13
2022-11-20T07:29:50.389Z,1.92
2022-11-20T07:32:17.723Z,2.70
2022-11-20T07:34:44.925Z,3.08
2022-11-20T07:37:12.140Z,2.40
2022-11-20T07:39:39.314Z,2.15
2022-11-20T07:42:06.666Z,1.90
2022-11-20T07:44:33.836Z,2.03
2022-11-20T07:47:01.121Z,1.52
2022-11-20T07:49:28.294Z,1.17
2022-11-20T07:51:58.307Z,1.50
2022-11-20T07:54:28.998Z,1.42
2022-11-20T07:56:56.183Z,1.13
2022-11-20T07:59:23.703Z,1.40
2022-11-20T08:01:51.106Z,1.50
2022-11-20T08:04:18.294Z,1.67
2022-11-20T08:06:45.457Z,1.00
2022-11-20T08:09:12.708Z,1.30
2022-11-20T08:11:58.790Z,1.25
2022-11-20T08:14:26.066Z,1.15
2022-11-20T08:16:53.220Z,1.15
2022-11-20T08:19:20.774Z,1.20
2022-11-20T08:21:48.245Z,1.38
2022-11-20T08:24:15.487Z,1.27
2022-11-20T08:26:42.694Z,1.50
2022-11-20T08:29:09.950Z,1.77
2022-11-20T08:31:37.186Z,1.92
2022-11-20T08:34:09.013Z,1.85
2022-11-20T08:36:36.871Z,1.83
2022-11-20T08:39:04.018Z,2.08
2022-11-20T08:41:34.043Z,1.77
2022-11-20T08:44:01.459Z,2.20
2022-11-20T08:46:28.595Z,2.47
2022-11-20T08:48:55.883Z,1.98
2022-11-20T08:51:23.099Z,3.10
2022-11-20T08:53:50.302Z,2.38
2022-11-20T08:56:17.780Z,2.45
2022-11-20T08:59:10.307Z,3.35
2022-11-20T09:01:32.147Z,2.88
2022-11-20T09:04:00.711Z,3.60
2022-11-20T09:06:28.048Z,2.92
2022-11-20T09:08:55.278Z,3.45
2022-11-20T09:11:22.499Z,4.03
2022-11-20T09:13:49.711Z,4.25
2022-11-20T09:16:16.949Z,4.22
2022-11-20T09:18:44.147Z,4.93
2022-11-20T09:21:11.772Z,3.38
2022-11-20T09:23:39.008Z,5.38
2022-11-20T09:26:06.278Z,5.10
2022-11-20T09:28:33.468Z,5.82
2022-11-20T09:31:00.682Z,5.80
2022-11-20T09:33:27.843Z,5.43
2022-11-20T09:35:55.039Z,4.97
2022-11-20T09:38:22.195Z,5.90
2022-11-20T09:40:49.527Z,6.05
2022-11-20T09:43:16.683Z,4.75
2022-11-20T09:45:43.913Z,3.97
2022-11-20T09:48:11.119Z,4.22
2022-11-20T09:50:38.339Z,3.58
2022-11-20T09:53:05.487Z,6.13
2022-11-20T09:55:32.709Z,5.95
2022-11-20T09:57:59.883Z,4.88
2022-11-20T10:00:27.115Z,4.65
2022-11-20T10:02:54.396Z,5.88
2022-11-20T10:05:21.655Z,4.10
2022-11-20T10:07:48.835Z,5.53
2022-11-20T10:10:16.083Z,5.22
2022-11-20T10:12:43.230Z,5.15
2022-11-20T10:15:10.446Z,5.93
2022-11-20T10:17:37.660Z,6.72
2022-11-20T10:20:04.928Z,5.90
2022-11-20T10:22:32.155Z,6.75
2022-11-20T10:24:59.400Z,6.25
2022-11-20T10:27:26.601Z,4.90
2022-11-20T10:29:53.807Z,6.18
2022-11-20T10:32:21.039Z,7.30
2022-11-20T10:34:48.561Z,5.88
2022-11-20T10:37:15.708Z,5.60
2022-11-20T10:39:42.948Z,4.90
2022-11-20T10:42:10.163Z,5.40
2022-11-20T10:44:56.778Z,4.68
2022-11-20T10:47:24.497Z,4.95
2022-11-20T10:49:51.791Z,4.72
2022-11-20T10:52:19.081Z,4.57
2022-11-20T10:54:46.872Z,4.53
2022-11-20T10:57:14.267Z,4.63
2022-11-20T10:59:41.460Z,6.10
2022-11-20T11:02:08.767Z,5.72
2022-11-20T11:04:35.931Z,5.10
2022-11-20T11:07:03.268Z,5.82
2022-11-20T11:09:30.424Z,4.82
2022-11-20T11:11:59.089Z,4.82
2022-11-20T11:14:28.075Z,3.60
2022-11-20T11:16:55.321Z,4.90
2022-11-20T11:19:22.786Z,5.50
2022-11-20T11:21:55.107Z,4.53
2022-11-20T11:24:41.186Z,3.63
2022-11-20T11:27:13.725Z,5.07
2022-11-20T11:29:43.959Z,6.78
2022-11-20T11:32:11.199Z,6.50
2022-11-20T11:34:38.363Z,4.45
2022-11-20T11:37:05.729Z,3.60
2022-11-20T11:39:32.958Z,3.60
2022-11-20T11:42:00.266Z,3.58
2022-11-20T11:44:46.352Z,4.35
2022-11-20T11:47:13.728Z,3.80
2022-11-20T11:49:41.402Z,6.10
2022-11-20T11:52:08.665Z,4.30
2022-11-20T11:54:35.844Z,4.15
2022-11-20T11:57:03.119Z,4.40
2022-11-20T11:59:30.280Z,5.78
2022-11-20T12:01:57.621Z,4.03
2022-11-20T12:04:24.836Z,4.28
2022-11-20T12:06:52.105Z,6.13
2022-11-20T12:09:19.313Z,5.38
2022-11-20T12:11:46.653Z,3.70
2022-11-20T12:14:13.949Z,4.95
2022-11-20T12:16:41.202Z,4.90
2022-11-20T12:19:08.375Z,4.65
2022-11-20T12:21:35.683Z,5.13
2022-11-20T12:24:02.891Z,4.75
2022-11-20T12:26:30.165Z,4.50
2022-11-20T12:28:57.366Z,4.30
2022-11-20T12:31:24.642Z,3.22
2022-11-20T12:33:51.862Z,5.40
2022-11-20T12:36:19.103Z,6.50
2022-11-20T12:38:46.276Z,3.95
2022-11-20T12:41:13.492Z,3.60
2022-11-20T12:43:59.580Z,4.18
2022-11-20T12:46:26.813Z,4.20
2022-11-20T12:48:54.101Z,4.05
2022-11-20T12:51:21.367Z,4.82
2022-11-20T12:53:48.529Z,4.13
2022-11-20T12:56:15.780Z,5.65
2022-11-20T12:58:44.163Z,3.63
2022-11-20T13:01:31.362Z,3.63
2022-11-20T13:03:58.607Z,3.92
2022-11-20T13:06:25.765Z,5.05
2022-11-20T13:08:52.991Z,4.22
2022-11-20T13:11:20.235Z,3.80
2022-11-20T13:13:47.411Z,4.82
2022-11-20T13:16:14.832Z,5.40
2022-11-20T13:18:43.541Z,4.03
2022-11-20T13:21:10.725Z,7.15
2022-11-20T13:23:37.987Z,3.90
2022-11-20T13:26:05.154Z,3.40
2022-11-20T13:28:32.461Z,3.97
2022-11-20T13:30:59.719Z,4.00
2022-11-20T13:33:27.054Z,4.55
2022-11-20T13:35:54.201Z,4.30
2022-11-20T13:38:21.470Z,4.00
2022-11-20T13:40:48.774Z,4.10
2022-11-20T13:43:16.135Z,4.38
2022-11-20T13:45:43.323Z,3.78
2022-11-20T13:48:10.633Z,4.43
2022-11-20T13:50:37.841Z,3.75
2022-11-20T13:53:05.054Z,4.30
2022-11-20T13:55:32.254Z,3.30
2022-11-20T13:57:59.519Z,3.88
2022-11-20T14:00:26.759Z,4.22
2022-11-20T14:02:54.011Z,4.18
2022-11-20T14:05:21.251Z,5.32
2022-11-20T14:07:48.466Z,3.13
2022-11-20T14:10:15.641Z,3.65
2022-11-20T14:12:42.864Z,3.75
2022-11-20T14:15:10.040Z,4.65
2022-11-20T14:17:37.781Z,4.15
2022-11-20T14:20:04.935Z,4.50
2022-11-20T14:22:32.167Z,3.08
2022-11-20T14:24:59.463Z,4.57
2022-11-20T14:27:26.679Z,3.28
2022-11-20T14:29:53.995Z,4.35
2022-11-20T14:32:21.268Z,3.00
2022-11-20T14:34:48.500Z,3.47
2022-11-20T14:37:17.202Z,5.38
2022-11-20T14:39:44.537Z,3.35
2022-11-20T14:42:11.824Z,3.20
2022-11-20T14:44:39.053Z,5.28
2022-11-20T14:47:06.387Z,4.20
2022-11-20T14:49:33.605Z,2.83
2022-11-20T14:52:00.896Z,4.45
2022-11-20T14:54:29.375Z,4.13
2022-11-20T14:56:57.124Z,3.83
2022-11-20T14:59:24.331Z,3.60
2022-11-20T15:01:51.544Z,3.40
2022-11-20T15:04:18.867Z,3.65
2022-11-20T15:06:46.068Z,3.95
2022-11-20T15:09:13.258Z,3.47
2022-11-20T15:11:40.471Z,7.15
2022-11-20T15:14:07.600Z,5.07
2022-11-20T15:16:34.965Z,16.17
2022-11-20T15:19:02.185Z,4.30
2022-11-20T15:21:30.348Z,4.25
2022-11-20T15:23:57.544Z,4.75
2022-11-20T15:26:25.311Z,3.60
2022-11-20T15:28:52.469Z,4.57
2022-11-20T15:31:19.719Z,5.03
2022-11-20T15:33:46.937Z,4.10
2022-11-20T15:36:14.287Z,5.20
2022-11-20T15:38:41.404Z,3.85
2022-11-20T15:41:08.634Z,4.60
2022-11-20T15:43:35.821Z,6.82
2022-11-20T15:46:03.036Z,4.57
2022-11-20T15:48:30.207Z,4.47
2022-11-20T15:50:57.451Z,4.22
2022-11-20T15:53:24.592Z,3.30
2022-11-20T15:55:51.984Z,4.68
2022-11-20T15:58:19.143Z,3.80
2022-11-20T16:00:46.424Z,3.85
2022-11-20T16:03:13.661Z,4.10
2022-11-20T16:05:40.961Z,4.72
2022-11-20T16:08:11.483Z,4.93
2022-11-20T16:10:39.308Z,3.25
2022-11-20T16:13:25.246Z,4.03
2022-11-20T16:15:53.462Z,3.90
2022-11-20T16:18:20.692Z,3.80
2022-11-20T16:20:47.980Z,5.15
2022-11-20T16:23:16.456Z,4.03
2022-11-20T16:25:43.700Z,4.35
2022-11-20T16:28:15.998Z,3.72
2022-11-20T16:30:46.053Z,4.55
2022-11-20T16:33:13.304Z,4.45
2022-11-20T16:35:40.556Z,3.75
2022-11-20T16:38:07.748Z,4.32
2022-11-20T16:40:35.025Z,4.93
2022-11-20T16:43:02.166Z,3.97
2022-11-20T16:45:33.766Z,4.63
2022-11-20T16:48:01.294Z,4.57
2022-11-20T16:50:28.458Z,5.57
2022-11-20T16:52:55.693Z,4.57
2022-11-20T16:55:22.839Z,3.67
2022-11-20T16:57:49.996Z,4.32
2022-11-20T17:00:17.274Z,4.38
2022-11-20T17:02:44.525Z,3.45
2022-11-20T17:05:11.684Z,5.07
2022-11-20T17:07:39.415Z,3.85
2022-11-20T17:10:06.665Z,3.47
2022-11-20T17:12:33.879Z,4.10
2022-11-20T17:15:01.095Z,4.50
2022-11-20T17:17:28.295Z,5.20
2022-11-20T17:19:55.424Z,4.68
2022-11-20T17:22:22.661Z,4.57
2022-11-20T17:24:49.791Z,5.25
2022-11-20T17:27:17.244Z,4.35
2022-11-20T17:29:44.399Z,4.90
2022-11-20T17:32:11.611Z,4.43
2022-11-20T17:34:38.777Z,5.20
2022-11-20T17:37:06.138Z,4.10
2022-11-20T17:39:33.306Z,4.20
2022-11-20T17:42:19.311Z,4.85
2022-11-20T17:44:47.425Z,3.50
2022-11-20T17:47:14.628Z,3.20
2022-11-20T17:49:42.021Z,3.67
2022-11-20T17:52:09.192Z,3.53
2022-11-20T17:54:36.375Z,3.75
2022-11-20T17:57:22.287Z,3.20
2022-11-20T17:59:49.484Z,3.63
2022-11-20T18:02:16.838Z,3.80
2022-11-20T18:04:44.968Z,4.00
2022-11-20T18:07:12.539Z,4.10
2022-11-20T18:09:39.780Z,3.40
2022-11-20T18:12:07.089Z,2.83
2022-11-20T18:14:36.252Z,3.78
2022-11-20T18:17:03.534Z,3.50
2022-11-20T18:19:32.706Z,3.35
2022-11-20T18:22:01.814Z,3.08
2022-11-20T18:24:29.196Z,3.10
2022-11-20T18:26:57.696Z,5.22
2022-11-20T18:29:25.187Z,3.35
2022-11-20T18:31:52.570Z,2.83
2022-11-20T18:34:19.928Z,2.70
2022-11-20T18:36:47.102Z,3.92
2022-11-20T18:39:14.377Z,3.00
2022-11-20T18:42:00.479Z,3.00
2022-11-20T18:44:46.630Z,3.20
2022-11-20T18:47:15.116Z,2.92
2022-11-20T18:49:42.465Z,2.70
2022-11-20T18:52:09.689Z,2.75
2022-11-20T18:54:37.157Z,2.78
2022-11-20T18:57:04.371Z,2.30
2022-11-20T18:59:31.999Z,2.58
2022-11-20T19:01:59.554Z,3.15
2022-11-20T19:04:27.065Z,2.95
2022-11-20T19:06:56.315Z,3.15
2022-11-20T19:09:24.135Z,2.63
2022-11-20T19:11:51.840Z,2.50
2022-11-20T19:14:19.068Z,2.65
2022-11-20T19:16:46.573Z,2.40
2022-11-20T19:19:14.067Z,3.38
2022-11-20T19:21:42.243Z,3.78
2022-11-20T19:24:09.502Z,2.47
2022-11-20T19:26:36.770Z,2.72
2022-11-20T19:29:04.396Z,3.83
2022-11-20T19:31:31.605Z,3.38
2022-11-20T19:33:58.761Z,2.90
2022-11-20T19:36:26.099Z,3.88
2022-11-20T19:38:53.317Z,4.43
2022-11-20T19:41:20.586Z,3.53
2022-11-20T19:43:50.815Z,3.95
2022-11-20T19:46:18.648Z,8.10
2022-11-20T19:48:45.831Z,4.07
2022-11-20T19:51:13.081Z,4.90
2022-11-20T19:53:40.300Z,3.53
2022-11-20T19:56:08.379Z,4.05
2022-11-20T19:58:35.624Z,4.85
2022-11-20T20:01:03.291Z,2.63
2022-11-20T20:03:30.544Z,4.00
2022-11-20T20:05:57.750Z,3.42
2022-11-20T20:08:24.940Z,3.08
2022-11-20T20:10:56.653Z,3.13
2022-11-20T20:13:26.612Z,3.63
2022-11-20T20:15:53.822Z,3.03
2022-11-20T20:18:21.060Z,3.25
2022-11-20T20:20:48.241Z,3.85
2022-11-20T20:23:15.478Z,3.72
2022-11-20T20:25:42.684Z,4.35
2022-11-20T20:28:09.926Z,3.55
2022-11-20T20:30:37.141Z,4.05
2022-11-20T20:33:04.738Z,3.70
2022-11-20T20:35:31.883Z,3.35
2022-11-20T20:37:59.141Z,3.15
2022-11-20T20:40:26.387Z,4.10
2022-11-20T20:42:53.747Z,4.20
2022-11-20T20:45:21.019Z,3.50
2022-11-20T20:47:48.276Z,3.92
2022-11-20T20:50:15.429Z,3.05
2022-11-20T20:52:42.662Z,3.10
2022-11-20T20:55:11.057Z,2.83
2022-11-20T20:57:38.383Z,3.60
2022-11-20T21:00:05.745Z,5.32
2022-11-20T21:02:32.975Z,2.85
2022-11-20T21:05:00.222Z,3.28
2022-11-20T21:07:27.506Z,3.97
2022-11-20T21:09:54.699Z,3.15
2022-11-20T21:12:21.934Z,4.53
2022-11-20T21:14:49.116Z,3.58
2022-11-20T21:17:16.348Z,3.35
2022-11-20T21:19:43.650Z,3.33
2022-11-20T21:22:10.811Z,2.97
2022-11-20T21:24:37.976Z,2.78
2022-11-20T21:27:05.235Z,2.10
2022-11-20T21:29:32.420Z,2.35
2022-11-20T21:31:59.731Z,3.30
2022-11-20T21:34:27.281Z,3.17
2022-11-20T21:36:54.575Z,2.42
2022-11-20T21:39:22.084Z,3.28
2022-11-20T21:41:49.324Z,2.78
2022-11-20T21:44:30.883Z,2.20
2022-11-20T21:46:58.796Z,2.67
2022-11-20T21:49:26.269Z,2.90
2022-11-20T21:51:53.988Z,4.95
2022-11-20T21:54:21.396Z,2.45
2022-11-20T21:56:48.760Z,2.97
2022-11-20T21:59:15.998Z,3.15
2022-11-20T22:01:43.355Z,3.08
2022-11-20T22:04:10.545Z,2.20
2022-11-20T22:06:37.753Z,2.60
2022-11-20T22:09:04.949Z,3.97
2022-11-20T22:11:32.136Z,2.40
2022-11-20T22:14:18.143Z,3.30
2022-11-20T22:16:45.446Z,2.42
2022-11-20T22:19:12.600Z,3.13
2022-11-20T22:21:40.049Z,2.40
2022-11-20T22:24:07.288Z,5.25
2022-11-20T22:26:39.663Z,5.10
2022-11-20T22:29:07.636Z,2.70
2022-11-20T22:31:34.773Z,3.72
2022-11-20T22:34:01.948Z,3.10
2022-11-20T22:36:29.157Z,2.08
2022-11-20T22:38:56.379Z,2.13
2022-11-20T22:41:25.041Z,2.47
2022-11-20T22:43:52.191Z,3.03
2022-11-20T22:46:19.452Z,2.90
2022-11-20T22:48:46.608Z,2.72
2022-11-20T22:51:13.951Z,2.25
2022-11-20T22:53:41.132Z,2.25
2022-11-20T22:56:08.426Z,2.22
2022-11-20T22:58:35.689Z,2.35
2022-11-20T23:01:02.944Z,2.35
2022-11-20T23:03:30.142Z,1.75
2022-11-20T23:05:57.383Z,1.90
2022-11-20T23:08:24.578Z,1.80
2022-11-20T23:10:51.780Z,4.53
2022-11-20T23:13:19.033Z,2.85
2022-11-20T23:15:46.200Z,2.65
2022-11-20T23:18:13.357Z,2.42
2022-11-20T23:20:40.658Z,2.20
2022-11-20T23:23:07.824Z,2.20
2022-11-20T23:25:35.006Z,1.92
2022-11-20T23:28:02.205Z,3.45
2022-11-20T23:30:29.392Z,2.20
2022-11-20T23:32:56.576Z,2.22
2022-11-20T23:35:23.983Z,2.33
2022-11-20T23:37:51.130Z,2.63
2022-11-20T23:40:18.380Z,2.55
2022-11-20T23:43:04.388Z,2.45
2022-11-20T23:45:31.589Z,2.80
2022-11-20T23:47:58.772Z,3.45
2022-11-20T23:50:26.065Z,3.22
2022-11-20T23:52:53.191Z,2.92
2022-11-20T23:55:20.409Z,2.38
2022-11-20T23:57:47.631Z,2.55
